createdAt,value
2023-07-03T00:00:49.439Z,91343.57
2023-07-03T00:03:39.862Z,91345.31
2023-07-03T00:06:08.984Z,91342.14
2023-07-03T00:08:37.905Z,91343.85
2023-07-03T00:11:06.827Z,91343.56
2023-07-03T00:13:35.178Z,91350.56
2023-07-03T00:16:05.016Z,91347.21
2023-07-03T00:18:33.383Z,91349.18
2023-07-03T00:21:01.587Z,91348.84
2023-07-03T00:23:29.968Z,91351.92
2023-07-03T00:25:58.327Z,91351.70
2023-07-03T00:28:27.022Z,91355.98
2023-07-03T00:30:55.199Z,91358.16
2023-07-03T00:33:23.550Z,91359.14
2023-07-03T00:35:51.988Z,91360.10
2023-07-03T00:38:21.132Z,91362.94
2023-07-03T00:40:49.764Z,91367.08
2023-07-03T00:43:18.921Z,91367.30
2023-07-03T00:45:48.890Z,91365.04
2023-07-03T00:48:18.338Z,91368.18
2023-07-03T00:50:46.695Z,91370.64
2023-07-03T00:53:16.353Z,91368.45
2023-07-03T00:55:44.802Z,91369.48
2023-07-03T00:58:13.186Z,91361.96
2023-07-03T01:00:50.540Z,91361.12
2023-07-03T01:03:28.071Z,91360.83
2023-07-03T01:05:56.949Z,91367.67
2023-07-03T01:08:26.251Z,91366.77
2023-07-03T01:10:57.276Z,91372.86
2023-07-03T01:13:29.247Z,91371.31
2023-07-03T01:15:59.101Z,91377.61
2023-07-03T01:18:28.432Z,91378.58
2023-07-03T01:21:16.050Z,91379.06
2023-07-03T01:24:05.704Z,91377.27
2023-07-03T01:26:36.151Z,91374.56
2023-07-03T01:29:06.367Z,91373.79
2023-07-03T01:31:36.696Z,91375.02
2023-07-03T01:34:06.469Z,91367.59
2023-07-03T01:36:37.041Z,91371.29
2023-07-03T01:39:05.722Z,91371.04
2023-07-03T01:41:34.466Z,91379.91
2023-07-03T01:44:02.936Z,91380.03
2023-07-03T01:46:31.233Z,91378.27
2023-07-03T01:48:59.564Z,91381.10
2023-07-03T01:51:41.268Z,91382.70
2023-07-03T01:54:24.071Z,91386.21
2023-07-03T01:56:52.975Z,91392.52
2023-07-03T01:59:29.326Z,91393.41
2023-07-03T02:02:07.036Z,91395.45
2023-07-03T02:04:45.687Z,91397.91
2023-07-03T02:07:15.872Z,91402.72
2023-07-03T02:09:44.679Z,91405.04
2023-07-03T02:12:13.076Z,91405.73
2023-07-03T02:14:41.861Z,91411.05
2023-07-03T02:17:10.871Z,91412.20
2023-07-03T02:19:39.357Z,91416.19
2023-07-03T02:22:08.198Z,91414.20
2023-07-03T02:24:37.387Z,91415.79
2023-07-03T02:27:06.038Z,91414.46
2023-07-03T02:29:34.625Z,91419.61
2023-07-03T02:32:02.981Z,91425.58
2023-07-03T02:34:33.438Z,91426.17
2023-07-03T02:37:01.919Z,91426.01
2023-07-03T02:39:30.789Z,91426.55
2023-07-03T02:41:59.174Z,91427.60
2023-07-03T02:44:27.867Z,91430.46
2023-07-03T02:46:56.591Z,91433.89
2023-07-03T02:49:29.666Z,91441.56
2023-07-03T02:51:59.204Z,91441.89
2023-07-03T02:54:29.907Z,91447.31
2023-07-03T02:56:58.172Z,91451.05
2023-07-03T02:59:26.590Z,91457.77
2023-07-03T03:01:54.787Z,91461.27
2023-07-03T03:04:23.172Z,91459.39
2023-07-03T03:06:51.517Z,91461.16
2023-07-03T03:09:19.851Z,91462.16
2023-07-03T03:11:48.447Z,91459.79
2023-07-03T03:14:16.758Z,91461.06
2023-07-03T03:16:45.212Z,91463.31
2023-07-03T03:19:13.516Z,91460.63
2023-07-03T03:21:41.866Z,91458.10
2023-07-03T03:24:10.329Z,91454.82
2023-07-03T03:26:38.595Z,91458.17
2023-07-03T03:29:06.810Z,91458.45
2023-07-03T03:31:35.089Z,91463.79
2023-07-03T03:34:05.348Z,91459.86
2023-07-03T03:36:34.754Z,91464.27
2023-07-03T03:39:04.492Z,91463.84
2023-07-03T03:41:33.349Z,91466.14
2023-07-03T03:44:02.020Z,91464.58
2023-07-03T03:46:30.437Z,91466.92
2023-07-03T03:48:59.422Z,91462.73
2023-07-03T03:51:28.216Z,91464.80
2023-07-03T03:53:56.609Z,91468.77
2023-07-03T03:56:24.912Z,91468.69
2023-07-03T03:58:53.131Z,91469.13
2023-07-03T04:01:21.427Z,91469.08
2023-07-03T04:03:49.732Z,91467.08
2023-07-03T04:06:18.104Z,91466.71
2023-07-03T04:08:46.434Z,91469.09
2023-07-03T04:11:15.468Z,91470.44
2023-07-03T04:13:43.737Z,91468.86
2023-07-03T04:16:13.476Z,91470.19
2023-07-03T04:18:42.053Z,91471.27
2023-07-03T04:21:10.361Z,91469.98
2023-07-03T04:23:38.757Z,91469.54
2023-07-03T04:26:07.098Z,91468.49
2023-07-03T04:28:35.450Z,91466.80
2023-07-03T04:31:03.916Z,91468.67
2023-07-03T04:33:32.216Z,91464.95
2023-07-03T04:36:00.590Z,91469.59
2023-07-03T04:38:28.910Z,91469.34
2023-07-03T04:40:57.742Z,91473.31
2023-07-03T04:43:26.023Z,91475.02
2023-07-03T04:45:55.161Z,91472.60
2023-07-03T04:48:23.702Z,91475.71
2023-07-03T04:50:52.014Z,91477.52
2023-07-03T04:53:24.501Z,91480.02
2023-07-03T04:55:53.172Z,91479.20
2023-07-03T04:58:22.901Z,91479.80
2023-07-03T05:00:51.441Z,91484.91
2023-07-03T05:03:19.900Z,91487.67
2023-07-03T05:05:48.587Z,91488.59
2023-07-03T05:08:16.925Z,91489.54
2023-07-03T05:10:45.217Z,91487.92
2023-07-03T05:13:13.418Z,91490.27
2023-07-03T05:15:41.649Z,91494.31
2023-07-03T05:18:09.950Z,91498.33
2023-07-03T05:20:38.352Z,91500.05
2023-07-03T05:23:06.669Z,91499.88
2023-07-03T05:25:35.189Z,91500.73
2023-07-03T05:28:03.362Z,91505.02
2023-07-03T05:30:31.683Z,91507.11
2023-07-03T05:33:00.253Z,91509.61
2023-07-03T05:35:28.655Z,91511.46
2023-07-03T05:37:57.597Z,91511.36
2023-07-03T05:40:26.025Z,91516.77
2023-07-03T05:42:54.449Z,91513.89
2023-07-03T05:45:22.644Z,91512.78
2023-07-03T05:47:51.536Z,91509.04
2023-07-03T05:50:19.935Z,91512.41
2023-07-03T05:52:48.071Z,91508.84
2023-07-03T05:55:16.429Z,91509.41
2023-07-03T05:57:44.985Z,91517.09
2023-07-03T06:00:16.920Z,91515.75
2023-07-03T06:02:48.390Z,91515.75
2023-07-03T06:05:18.034Z,91520.57
2023-07-03T06:07:46.340Z,91522.36
2023-07-03T06:10:15.172Z,91525.41
2023-07-03T06:12:44.409Z,91524.34
2023-07-03T06:15:12.683Z,91526.66
2023-07-03T06:17:42.164Z,91523.14
2023-07-03T06:20:12.414Z,91525.88
2023-07-03T06:22:43.488Z,91528.66
2023-07-03T06:25:12.069Z,91527.19
2023-07-03T06:27:40.723Z,91530.75
2023-07-03T06:30:09.630Z,91531.29
2023-07-03T06:32:38.771Z,91526.42
2023-07-03T06:35:07.703Z,91527.42
2023-07-03T06:37:37.251Z,91530.50
2023-07-03T06:40:10.722Z,91532.96
2023-07-03T06:42:40.182Z,91527.27
2023-07-03T06:45:14.220Z,91528.72
2023-07-03T06:47:42.544Z,91521.84
2023-07-03T06:50:11.271Z,91521.23
2023-07-03T06:52:39.584Z,91520.83
2023-07-03T06:55:08.314Z,91521.31
2023-07-03T06:57:36.648Z,91519.99
2023-07-03T07:00:07.271Z,91515.61
2023-07-03T07:02:35.677Z,91513.45
2023-07-03T07:05:04.607Z,91517.73
2023-07-03T07:07:32.976Z,91518.08
2023-07-03T07:10:02.258Z,91519.96
2023-07-03T07:12:30.549Z,91518.31
2023-07-03T07:14:58.840Z,91519.09
2023-07-03T07:17:35.578Z,91518.21
2023-07-03T07:20:14.742Z,91517.42
2023-07-03T07:22:43.086Z,91517.88
2023-07-03T07:25:11.380Z,91518.95
2023-07-03T07:27:39.796Z,91523.39
2023-07-03T07:30:08.576Z,91521.23
2023-07-03T07:32:37.401Z,91526.18
2023-07-03T07:35:08.840Z,91525.27
2023-07-03T07:37:36.976Z,91521.52
2023-07-03T07:40:06.045Z,91523.21
2023-07-03T07:42:34.304Z,91525.09
2023-07-03T07:45:02.729Z,91519.69
2023-07-03T07:47:32.076Z,91524.36
2023-07-03T07:50:00.374Z,91522.48
2023-07-03T07:52:28.682Z,91518.80
2023-07-03T07:55:00.303Z,91522.47
2023-07-03T07:57:30.658Z,91526.09
2023-07-03T07:59:59.076Z,91528.08
2023-07-03T08:02:27.884Z,91527.22
2023-07-03T08:04:57.816Z,91525.47
2023-07-03T08:07:26.238Z,91526.98
2023-07-03T08:09:54.510Z,91528.62
2023-07-03T08:12:22.936Z,91528.80
2023-07-03T08:14:51.223Z,91527.38
2023-07-03T08:17:20.446Z,91530.06
2023-07-03T08:19:49.517Z,91540.49
2023-07-03T08:22:20.655Z,91541.63
2023-07-03T08:24:49.680Z,91539.75
2023-07-03T08:27:17.889Z,91537.88
2023-07-03T08:29:48.168Z,91541.34
2023-07-03T08:32:16.574Z,91542.54
2023-07-03T08:37:08.012Z,91544.36
2023-07-03T08:37:34.346Z,91541.66
2023-07-03T08:40:02.667Z,91540.52
2023-07-03T08:42:41.263Z,91542.98
2023-07-03T08:45:13.684Z,91540.70
2023-07-03T08:47:43.103Z,91541.13
2023-07-03T08:50:28.005Z,91540.95
2023-07-03T08:53:04.389Z,91545.61
2023-07-03T08:55:47.041Z,91540.92
2023-07-03T08:58:15.371Z,91539.16
2023-07-03T09:00:54.735Z,91536.34
2023-07-03T09:03:53.743Z,91537.67
2023-07-03T09:06:37.367Z,91534.95
2023-07-03T09:09:08.444Z,91537.84
2023-07-03T09:11:40.849Z,91541.77
2023-07-03T09:14:20.045Z,91548.27
2023-07-03T09:16:48.888Z,91549.44
2023-07-03T09:19:22.928Z,91549.05
2023-07-03T09:21:55.964Z,91546.10
2023-07-03T09:24:39.251Z,91551.13
2023-07-03T09:27:19.607Z,91544.05
2023-07-03T09:29:48.305Z,91546.02
2023-07-03T09:32:28.581Z,91551.34
2023-07-03T09:35:08.737Z,91554.59
2023-07-03T09:37:46.643Z,91555.42
2023-07-03T09:40:23.076Z,91554.52
2023-07-03T09:42:51.699Z,91554.15
2023-07-03T09:45:22.891Z,91555.05
2023-07-03T09:48:04.081Z,91555.56
2023-07-03T09:50:36.267Z,91557.27
2023-07-03T09:53:09.715Z,91556.99
2023-07-03T09:55:38.697Z,91560.05
2023-07-03T09:58:17.878Z,91560.27
2023-07-03T10:00:53.122Z,91565.85
2023-07-03T10:03:33.731Z,91568.13
2023-07-03T10:12:11.819Z,91564.46
2023-07-03T10:15:06.727Z,91559.13
2023-07-03T10:17:56.712Z,91559.29
2023-07-03T10:20:29.817Z,91559.95
2023-07-03T10:23:00.334Z,91561.64
2023-07-03T10:25:35.441Z,91564.08
2023-07-03T10:28:13.428Z,91562.58
2023-07-03T10:30:42.205Z,91557.29
2023-07-03T10:33:16.254Z,91558.98
2023-07-03T10:35:44.983Z,91559.27
2023-07-03T10:38:22.463Z,91559.52
2023-07-03T10:41:16.487Z,91557.11
2023-07-03T10:43:54.671Z,91555.09
2023-07-03T10:46:30.544Z,91556.59
2023-07-03T10:49:06.058Z,91559.05
2023-07-03T10:51:56.735Z,91563.66
2023-07-03T10:54:31.628Z,91567.44
2023-07-03T10:57:04.993Z,91561.73
2023-07-03T10:59:36.858Z,91562.77
2023-07-03T11:02:19.214Z,91563.61
2023-07-03T11:04:56.346Z,91563.30
2023-07-03T11:07:34.074Z,91561.55
2023-07-03T11:10:29.992Z,91560.90
2023-07-03T11:13:07.650Z,91559.47
2023-07-03T11:15:54.218Z,91564.13
2023-07-03T11:25:03.289Z,91582.45
2023-07-03T11:28:07.942Z,91583.83
2023-07-03T11:30:40.631Z,91583.67
2023-07-03T11:33:10.126Z,91586.30
2023-07-03T11:35:51.967Z,91585.03
2023-07-03T11:40:55.318Z,91600.71
2023-07-03T11:43:42.987Z,91604.29
2023-07-03T11:46:18.516Z,91602.26
2023-07-03T11:48:50.403Z,91605.67
2023-07-03T11:51:32.808Z,91603.60
2023-07-03T11:54:13.747Z,91598.14
2023-07-03T11:56:42.579Z,91597.38
2023-07-03T11:59:17.905Z,91596.43
2023-07-03T12:01:46.216Z,91600.41
2023-07-03T12:04:49.082Z,91603.30
2023-07-03T12:07:18.190Z,91605.63
2023-07-03T12:09:51.447Z,91604.16
2023-07-03T12:12:22.405Z,91606.80
2023-07-03T12:14:55.365Z,91606.61
2023-07-03T12:17:27.897Z,91605.52
2023-07-03T12:20:14.767Z,91605.27
2023-07-03T12:22:46.167Z,91602.59
2023-07-03T12:25:19.659Z,91602.14
2023-07-03T12:27:49.404Z,91597.73
2023-07-03T12:30:27.330Z,91599.80
2023-07-03T12:32:57.717Z,91597.92
2023-07-03T12:35:32.002Z,91601.14
2023-07-03T12:38:05.977Z,91600.08
2023-07-03T12:40:34.363Z,91596.81
2023-07-03T12:43:02.626Z,91597.30
2023-07-03T12:45:32.329Z,91594.84
2023-07-03T12:48:11.701Z,91595.55
2023-07-03T12:50:55.040Z,91592.59
2023-07-03T12:53:25.642Z,91583.68
2023-07-03T12:55:57.784Z,91586.05
2023-07-03T12:58:26.935Z,91580.95
2023-07-03T13:01:07.662Z,91577.37
2023-07-03T13:03:41.284Z,91584.71
2023-07-03T13:06:24.820Z,91584.25
2023-07-03T13:08:54.057Z,91584.99
2023-07-03T13:11:54.584Z,91583.09
2023-07-03T13:14:26.322Z,91584.55
2023-07-03T13:17:00.564Z,91585.81
2023-07-03T13:19:35.986Z,91585.97
2023-07-03T13:22:15.384Z,91585.31
2023-07-03T13:24:50.054Z,91583.91
2023-07-03T13:27:27.071Z,91586.30
2023-07-03T13:30:15.949Z,91586.56
2023-07-03T13:32:59.259Z,91585.57
2023-07-03T13:35:33.970Z,91594.85
2023-07-03T13:38:12.290Z,91590.89
2023-07-03T13:40:40.639Z,91591.02
2023-07-03T13:43:09.604Z,91591.45
2023-07-03T13:45:37.918Z,91591.86
2023-07-03T13:48:07.278Z,91591.17
2023-07-03T13:50:35.677Z,91595.54
2023-07-03T13:53:04.073Z,91595.83
2023-07-03T13:55:32.289Z,91599.85
2023-07-03T13:58:00.560Z,91595.42
2023-07-03T14:00:29.011Z,91595.50
2023-07-03T14:02:57.577Z,91596.75
2023-07-03T14:05:26.254Z,91595.14
2023-07-03T14:07:54.523Z,91593.71
2023-07-03T14:10:22.815Z,91588.36
2023-07-03T14:12:51.113Z,91588.77
2023-07-03T14:15:26.991Z,91591.51
2023-07-03T14:17:56.062Z,91591.14
2023-07-03T14:20:24.429Z,91587.90
2023-07-03T14:22:52.763Z,91589.44
2023-07-03T14:25:21.006Z,91588.31
2023-07-03T14:27:50.288Z,91587.99
2023-07-03T14:30:18.955Z,91590.13
2023-07-03T14:32:55.436Z,91591.10
2023-07-03T14:35:25.158Z,91588.81
2023-07-03T14:37:53.581Z,91583.92
2023-07-03T14:40:21.934Z,91582.46
2023-07-03T14:42:50.853Z,91584.10
2023-07-03T14:45:19.290Z,91584.88
2023-07-03T14:47:47.713Z,91581.79
2023-07-03T14:50:16.015Z,91582.50
2023-07-03T14:52:46.299Z,91579.79
2023-07-03T14:55:16.461Z,91580.11
2023-07-03T14:57:46.316Z,91576.41
2023-07-03T15:00:15.157Z,91580.52
2023-07-03T15:02:49.891Z,91580.30
2023-07-03T15:05:20.941Z,91585.81
2023-07-03T15:07:51.339Z,91586.30
2023-07-03T15:10:21.406Z,91587.72
2023-07-03T15:12:49.680Z,91587.97
2023-07-03T15:15:18.034Z,91591.23
2023-07-03T15:17:51.227Z,91589.84
2023-07-03T15:20:19.750Z,91600.02
2023-07-03T15:22:52.197Z,91604.08
2023-07-03T15:25:21.191Z,91603.87
2023-07-03T15:27:49.533Z,91603.21
2023-07-03T15:30:18.045Z,91603.48
2023-07-03T15:32:52.619Z,91605.57
2023-07-03T15:35:22.490Z,91604.98
2023-07-03T15:37:50.699Z,91604.30
2023-07-03T15:40:18.879Z,91607.55
2023-07-03T15:42:47.383Z,91607.39
2023-07-03T15:45:15.720Z,91609.46
2023-07-03T15:47:46.135Z,91610.15
2023-07-03T15:50:15.089Z,91607.54
2023-07-03T15:52:43.426Z,91611.30
2023-07-03T15:55:11.792Z,91605.77
2023-07-03T15:57:40.089Z,91610.90
2023-07-03T16:00:08.946Z,91607.57
2023-07-03T16:02:37.555Z,91607.57
2023-07-03T16:05:06.197Z,91610.81
2023-07-03T16:07:35.805Z,91612.73
2023-07-03T16:10:04.356Z,91618.09
2023-07-03T16:12:32.594Z,91616.52
2023-07-03T16:15:00.874Z,91618.23
2023-07-03T16:17:35.075Z,91615.23
2023-07-03T16:20:10.091Z,91613.34
2023-07-03T16:22:39.328Z,91615.11
2023-07-03T16:25:08.119Z,91618.14
2023-07-03T16:27:37.414Z,91619.70
2023-07-03T16:30:06.438Z,91619.21
2023-07-03T16:32:34.837Z,91620.73
2023-07-03T16:35:03.097Z,91627.80
2023-07-03T16:37:31.365Z,91628.88
2023-07-03T16:39:59.685Z,91631.18
2023-07-03T16:42:28.092Z,91633.46
2023-07-03T16:44:56.351Z,91635.88
2023-07-03T16:47:25.234Z,91640.23
2023-07-03T16:49:53.591Z,91640.89
2023-07-03T16:52:21.896Z,91641.62
2023-07-03T16:54:50.211Z,91641.88
2023-07-03T16:57:18.502Z,91649.05
2023-07-03T16:59:46.744Z,91653.05
2023-07-03T17:02:15.000Z,91654.61
2023-07-03T17:04:43.373Z,91651.35
2023-07-03T17:07:11.693Z,91655.11
2023-07-03T17:09:39.944Z,91657.52
2023-07-03T17:12:08.446Z,91659.91
2023-07-03T17:14:36.778Z,91661.48
2023-07-03T17:17:05.312Z,91659.65
2023-07-03T17:19:33.948Z,91661.60
2023-07-03T17:22:02.260Z,91655.99
2023-07-03T17:24:30.521Z,91662.45
2023-07-03T17:26:58.737Z,91660.98
2023-07-03T17:29:27.139Z,91662.32
2023-07-03T17:31:55.552Z,91662.48
2023-07-03T17:34:23.864Z,91661.04
2023-07-03T17:36:52.354Z,91666.30
2023-07-03T17:39:20.756Z,91666.64
2023-07-03T17:41:49.952Z,91666.61
2023-07-03T17:44:18.243Z,91663.89
2023-07-03T17:46:46.577Z,91664.45
2023-07-03T17:49:14.768Z,91666.13
2023-07-03T17:51:43.007Z,91663.01
2023-07-03T17:54:11.283Z,91663.40
2023-07-03T17:56:39.648Z,91667.62
2023-07-03T17:59:07.810Z,91669.98
2023-07-03T18:01:36.169Z,91670.64
2023-07-03T18:04:06.412Z,91672.66
2023-07-03T18:06:38.102Z,91672.73
2023-07-03T18:09:06.317Z,91675.09
2023-07-03T18:11:34.972Z,91683.17
2023-07-03T18:14:03.455Z,91686.66
2023-07-03T18:16:31.790Z,91686.49
2023-07-03T18:19:00.124Z,91685.05
2023-07-03T18:21:28.557Z,91691.30
2023-07-03T18:23:58.471Z,91694.09
2023-07-03T18:26:26.749Z,91699.23
2023-07-03T18:28:55.120Z,91705.57
2023-07-03T18:31:26.179Z,91708.52
2023-07-03T18:33:58.453Z,91707.55
2023-07-03T18:36:26.778Z,91712.95
2023-07-03T18:38:56.689Z,91712.17
2023-07-03T18:41:26.231Z,91719.43
2023-07-03T18:43:54.632Z,91715.01
2023-07-03T18:46:22.894Z,91716.04
2023-07-03T18:48:51.224Z,91718.84
2023-07-03T18:51:22.923Z,91728.49
2023-07-03T18:53:52.076Z,91733.50
2023-07-03T18:56:21.703Z,91742.45
2023-07-03T18:58:50.978Z,91744.55
2023-07-03T19:01:19.416Z,91746.45
2023-07-03T19:03:47.960Z,91744.41
2023-07-03T19:06:21.936Z,91743.30
2023-07-03T19:08:50.201Z,91744.43
2023-07-03T19:11:19.513Z,91748.95
2023-07-03T19:13:47.878Z,91751.96
2023-07-03T19:16:16.304Z,91755.42
2023-07-03T19:18:46.061Z,91756.26
2023-07-03T19:21:14.583Z,91752.34
2023-07-03T19:23:43.415Z,91756.13
2023-07-03T19:26:11.964Z,91755.50
2023-07-03T19:28:40.737Z,91753.34
2023-07-03T19:31:09.620Z,91753.45
2023-07-03T19:33:37.969Z,91754.73
2023-07-03T19:36:15.297Z,91756.55
2023-07-03T19:38:43.979Z,91759.41
2023-07-03T19:41:15.271Z,91761.84
2023-07-03T19:43:43.939Z,91761.23
2023-07-03T19:46:12.831Z,91768.34
2023-07-03T19:48:41.462Z,91765.29
2023-07-03T19:51:09.761Z,91768.80
2023-07-03T19:53:38.515Z,91766.34
2023-07-03T19:56:13.818Z,91767.95
2023-07-03T19:58:42.602Z,91772.09
2023-07-03T20:01:12.927Z,91770.38
2023-07-03T20:03:42.387Z,91772.36
2023-07-03T20:06:18.770Z,91774.60
2023-07-03T20:08:48.553Z,91777.29
2023-07-03T20:11:17.461Z,91779.67
2023-07-03T20:13:47.737Z,91782.48
2023-07-03T20:16:16.721Z,91784.73
2023-07-03T20:18:50.423Z,91784.02
2023-07-03T20:21:19.624Z,91783.38
2023-07-03T20:23:49.562Z,91792.20
2023-07-03T20:26:17.896Z,91793.78
2023-07-03T20:28:46.504Z,91799.05
2023-07-03T20:31:15.689Z,91796.13
2023-07-03T20:33:44.199Z,91794.83
2023-07-03T20:36:13.524Z,91793.02
2023-07-03T20:38:41.789Z,91794.65
2023-07-03T20:41:12.471Z,91797.31
2023-07-03T20:43:42.773Z,91796.77
2023-07-03T20:46:14.129Z,91798.60
2023-07-03T20:48:43.105Z,91801.45
2023-07-03T20:51:22.176Z,91800.73
2023-07-03T20:53:52.365Z,91798.13
2023-07-03T20:56:27.578Z,91799.90
2023-07-03T20:58:58.553Z,91797.94
2023-07-03T21:01:32.510Z,91797.49
2023-07-03T21:04:05.020Z,91801.41
2023-07-03T21:06:37.468Z,91802.39
2023-07-03T21:09:07.309Z,91806.05
2023-07-03T21:11:37.105Z,91805.55
2023-07-03T21:14:08.175Z,91801.52
2023-07-03T21:16:37.479Z,91800.91
2023-07-03T21:19:13.341Z,91800.47
2023-07-03T21:21:42.552Z,91792.79
2023-07-03T21:24:12.708Z,91790.83
2023-07-03T21:26:41.279Z,91787.29
2023-07-03T21:29:09.688Z,91788.34
2023-07-03T21:31:38.162Z,91792.20
2023-07-03T21:34:06.877Z,91794.39
2023-07-03T21:36:35.251Z,91796.64
2023-07-03T21:39:07.620Z,91798.42
2023-07-03T21:41:37.165Z,91796.19
2023-07-03T21:44:14.153Z,91794.14
2023-07-03T21:46:42.895Z,91788.38
2023-07-03T21:49:14.352Z,91787.52
2023-07-03T21:51:43.064Z,91786.00
2023-07-03T21:54:11.498Z,91786.60
2023-07-03T21:56:41.646Z,91785.49
2023-07-03T21:59:10.763Z,91783.71
2023-07-03T22:01:40.707Z,91785.28
2023-07-03T22:04:09.961Z,91785.63
2023-07-03T22:06:38.379Z,91793.59
2023-07-03T22:09:07.318Z,91795.89
2023-07-03T22:11:35.673Z,91795.45
2023-07-03T22:14:04.401Z,91795.48
2023-07-03T22:16:32.925Z,91800.95
2023-07-03T22:19:01.343Z,91802.80
2023-07-03T22:21:30.770Z,91805.64
2023-07-03T22:23:59.801Z,91805.04
2023-07-03T22:26:28.030Z,91807.69
2023-07-03T22:28:57.618Z,91803.51
2023-07-03T22:31:27.671Z,91803.30
2023-07-03T22:33:56.158Z,91799.90
2023-07-03T22:36:24.664Z,91806.27
2023-07-03T22:38:53.015Z,91804.98
2023-07-03T22:41:23.553Z,91806.05
2023-07-03T22:43:51.942Z,91813.52
2023-07-03T22:46:20.217Z,91816.48
2023-07-03T22:48:48.700Z,91818.60
2023-07-03T22:51:17.054Z,91818.07
2023-07-03T22:53:49.281Z,91819.42
2023-07-03T22:56:17.578Z,91818.36
2023-07-03T22:58:45.824Z,91816.41
2023-07-03T23:01:14.195Z,91812.62
2023-07-03T23:03:42.416Z,91813.50
2023-07-03T23:06:10.824Z,91814.28
2023-07-03T23:08:39.238Z,91813.81
2023-07-03T23:11:07.602Z,91815.34
2023-07-03T23:13:36.145Z,91816.65
2023-07-03T23:16:07.420Z,91815.61
2023-07-03T23:18:38.485Z,91814.52
2023-07-03T23:21:11.443Z,91815.75
2023-07-03T23:23:40.197Z,91813.05
2023-07-03T23:26:14.226Z,91814.55
2023-07-03T23:28:44.755Z,91814.39
2023-07-03T23:31:17.941Z,91810.18
2023-07-03T23:33:51.526Z,91808.08
2023-07-03T23:36:23.776Z,91810.73
2023-07-03T23:38:52.767Z,91814.06
2023-07-03T23:41:21.956Z,91813.92
2023-07-03T23:43:50.529Z,91809.60
2023-07-03T23:46:18.997Z,91808.20
2023-07-03T23:48:47.524Z,91813.27
2023-07-03T23:51:18.777Z,91819.20
2023-07-03T23:53:48.891Z,91817.69
2023-07-03T23:56:19.824Z,91819.10
2023-07-03T23:58:49.651Z,91820.56
